createdAt,value
2018-03-06T00:01:47.274Z,99.90
2018-03-06T00:04:14.732Z,99.90
2018-03-06T00:06:42.234Z,99.90
2018-03-06T00:09:10.273Z,99.90
2018-03-06T00:11:39.612Z,99.90
2018-03-06T00:14:07.895Z,99.90
2018-03-06T00:16:37.830Z,99.90
2018-03-06T00:19:08.753Z,99.90
2018-03-06T00:21:48.189Z,99.90
2018-03-06T00:24:15.923Z,99.90
2018-03-06T00:26:43.395Z,99.90
2018-03-06T00:29:10.966Z,99.90
2018-03-06T00:31:39.278Z,99.90
2018-03-06T00:34:07.746Z,99.90
2018-03-06T00:36:38.502Z,99.90
2018-03-06T00:39:07.411Z,99.90
2018-03-06T00:41:41.879Z,99.90
2018-03-06T00:44:14.628Z,99.90
2018-03-06T00:46:43.083Z,99.90
2018-03-06T00:49:11.350Z,99.90
2018-03-06T00:51:41.909Z,99.90
2018-03-06T00:54:17.286Z,99.90
2018-03-06T00:56:48.447Z,99.90
2018-03-06T00:59:19.439Z,99.90
2018-03-06T01:01:47.625Z,99.90
2018-03-06T01:04:16.993Z,99.90
2018-03-06T01:06:48.343Z,99.90
2018-03-06T01:09:23.441Z,99.90
2018-03-06T01:11:51.571Z,99.90
2018-03-06T01:14:19.913Z,99.90
2018-03-06T01:16:48.070Z,99.90
2018-03-06T01:19:30.851Z,99.90
2018-03-06T01:22:10.923Z,99.90
2018-03-06T01:24:46.045Z,99.90
2018-03-06T01:27:23.302Z,99.90
2018-03-06T01:29:50.752Z,99.90
2018-03-06T01:32:19.498Z,99.90
2018-03-06T01:34:48.751Z,99.90
2018-03-06T01:37:20.368Z,99.90
2018-03-06T01:39:50.967Z,99.90
2018-03-06T01:42:24.033Z,99.90
2018-03-06T01:44:52.259Z,99.90
2018-03-06T01:47:22.950Z,99.90
2018-03-06T01:49:51.174Z,99.90
2018-03-06T01:52:18.945Z,99.90
2018-03-06T01:54:47.075Z,99.90
2018-03-06T01:57:33.229Z,99.90
2018-03-06T02:03:17.901Z,99.90
2018-03-06T02:05:49.051Z,99.90
2018-03-06T02:11:22.794Z,99.90
2018-03-06T02:17:19.499Z,99.90
2018-03-06T02:19:52.648Z,99.90
2018-03-06T02:22:20.888Z,99.90
2018-03-06T02:24:51.555Z,99.90
2018-03-06T02:33:58.385Z,99.90
2018-03-06T02:37:16.926Z,99.90
2018-03-06T02:45:58.120Z,99.90
2018-03-06T02:54:25.757Z,99.90
2018-03-06T02:56:55.328Z,99.90
2018-03-06T03:05:23.430Z,99.90
2018-03-06T03:07:51.065Z,99.90
2018-03-06T03:10:18.599Z,99.90
2018-03-06T03:16:54.176Z,99.90
2018-03-06T03:47:18.985Z,99.90
2018-03-06T03:52:52.459Z,99.90
2018-03-06T03:55:19.910Z,99.90
2018-03-06T03:57:48.347Z,99.90
2018-03-06T04:00:17.033Z,99.90
2018-03-06T04:02:46.056Z,99.90
2018-03-06T04:05:15.464Z,99.90
2018-03-06T04:07:50.585Z,99.90
2018-03-06T04:10:18.092Z,99.90
2018-03-06T04:15:50.005Z,99.90
2018-03-06T04:27:28.601Z,99.90
2018-03-06T04:39:52.078Z,99.90
2018-03-06T04:42:56.920Z,99.90
2018-03-06T04:51:55.712Z,99.90
2018-03-06T04:54:50.972Z,99.90
2018-03-06T05:04:13.993Z,99.90
2018-03-06T05:06:54.601Z,99.90
2018-03-06T05:09:23.980Z,99.90
2018-03-06T05:20:57.645Z,99.90
2018-03-06T05:23:25.178Z,99.90
2018-03-06T05:25:53.401Z,99.90
2018-03-06T05:31:27.067Z,99.90
2018-03-06T05:34:18.725Z,99.90
2018-03-06T05:36:49.473Z,99.90
2018-03-06T05:39:26.281Z,99.90
2018-03-06T05:42:16.140Z,99.90
2018-03-06T05:47:48.764Z,99.90
2018-03-06T05:50:24.627Z,99.90
2018-03-06T05:53:20.636Z,99.90
2018-03-06T06:02:22.505Z,99.90
2018-03-06T06:04:52.680Z,99.90
2018-03-06T06:07:24.458Z,99.90
2018-03-06T06:12:53.326Z,99.90
2018-03-06T06:15:21.576Z,99.90
2018-03-06T06:21:07.061Z,99.90
2018-03-06T06:23:48.226Z,99.90
2018-03-06T06:29:22.583Z,99.90
2018-03-06T06:31:57.616Z,99.90
2018-03-06T06:43:27.361Z,99.90
2018-03-06T06:46:23.966Z,99.90
2018-03-06T06:49:21.048Z,99.90
2018-03-06T06:51:50.433Z,99.90
2018-03-06T07:00:22.682Z,99.90
2018-03-06T07:02:51.745Z,99.90
2018-03-06T07:05:19.305Z,99.90
2018-03-06T07:07:50.301Z,99.90
2018-03-06T07:14:21.717Z,99.90
2018-03-06T07:25:52.449Z,99.90
2018-03-06T07:28:54.142Z,99.90
2018-03-06T07:49:19.122Z,99.90
2018-03-06T07:51:48.804Z,99.90
2018-03-06T07:54:23.696Z,99.90
2018-03-06T07:57:21.316Z,99.90
2018-03-06T08:00:18.884Z,99.90
2018-03-06T08:02:49.134Z,99.90
2018-03-06T08:05:25.221Z,99.90
2018-03-06T08:08:18.894Z,99.90
2018-03-06T08:11:19.934Z,99.90
2018-03-06T08:13:47.416Z,99.90
2018-03-06T08:16:17.634Z,99.90
2018-03-06T08:21:51.343Z,99.90
2018-03-06T08:27:25.597Z,99.90
2018-03-06T08:29:53.089Z,99.90
2018-03-06T08:35:28.853Z,99.90
2018-03-06T08:37:57.242Z,99.90
2018-03-06T08:40:25.482Z,99.90
2018-03-06T08:45:56.917Z,99.90
2018-03-06T08:48:24.445Z,99.90
2018-03-06T08:54:18.859Z,99.90
2018-03-06T08:56:49.130Z,99.90
2018-03-06T08:59:52.928Z,99.90
2018-03-06T09:05:21.685Z,99.90
2018-03-06T09:10:52.484Z,99.90
2018-03-06T09:13:21.658Z,99.90
2018-03-06T09:15:49.994Z,99.90
2018-03-06T09:21:21.584Z,98.80
2018-03-06T09:23:52.043Z,98.50
2018-03-06T09:29:20.272Z,98.40
2018-03-06T09:31:51.171Z,97.70
2018-03-06T09:34:20.363Z,97.10
2018-03-06T09:36:55.136Z,96.70
2018-03-06T09:39:22.549Z,95.60
2018-03-06T09:41:52.265Z,94.40
2018-03-06T09:47:52.478Z,94.10
2018-03-06T09:50:20.723Z,93.20
2018-03-06T09:52:49.678Z,93.10
2018-03-06T09:55:24.334Z,92.60
2018-03-06T09:57:51.937Z,92.60
2018-03-06T10:00:21.581Z,92.80
2018-03-06T10:02:49.106Z,92.20
2018-03-06T10:05:18.643Z,92.20
2018-03-06T10:07:51.662Z,91.50
2018-03-06T10:10:19.239Z,91.70
2018-03-06T10:12:48.701Z,91.20
2018-03-06T10:15:21.911Z,91.80
2018-03-06T10:17:49.433Z,91.80
2018-03-06T10:20:19.845Z,91.90
2018-03-06T10:23:21.513Z,91.90
2018-03-06T10:25:49.812Z,91.50
2018-03-06T10:31:36.543Z,91.40
2018-03-06T10:34:13.794Z,90.90
2018-03-06T10:36:49.108Z,90.50
2018-03-06T10:39:19.417Z,91.00
2018-03-06T10:44:49.118Z,92.10
2018-03-06T10:50:20.489Z,92.20
2018-03-06T10:52:51.628Z,92.20
2018-03-06T10:55:19.445Z,92.00
2018-03-06T10:57:47.461Z,92.10
2018-03-06T11:00:24.338Z,91.40
2018-03-06T11:02:53.869Z,91.90
2018-03-06T11:05:53.699Z,91.30
2018-03-06T11:08:21.496Z,91.30
2018-03-06T11:10:50.985Z,91.60
2018-03-06T11:13:23.346Z,91.30
2018-03-06T11:15:51.056Z,90.40
2018-03-06T11:18:21.130Z,91.50
2018-03-06T11:29:49.779Z,90.30
2018-03-06T11:32:56.884Z,90.10
2018-03-06T11:41:20.420Z,88.90
2018-03-06T11:43:54.205Z,88.30
2018-03-06T11:46:21.810Z,88.10
2018-03-06T11:48:50.324Z,88.10
2018-03-06T11:54:28.272Z,90.60
2018-03-06T11:59:53.281Z,88.80
2018-03-06T12:02:20.822Z,88.20
2018-03-06T12:04:57.852Z,87.50
2018-03-06T12:07:25.480Z,88.10
2018-03-06T12:10:18.228Z,87.20
2018-03-06T12:15:50.539Z,85.80
2018-03-06T12:21:54.832Z,85.60
2018-03-06T12:24:22.285Z,85.30
2018-03-06T12:26:50.605Z,84.50
2018-03-06T12:41:51.194Z,82.50
2018-03-06T12:44:57.839Z,82.50
2018-03-06T12:47:25.325Z,83.50
